createdAt,value
2019-05-20T00:00:01.407Z,12.9
2019-05-20T00:05:02.025Z,13
2019-05-20T00:10:02.066Z,13
2019-05-20T00:15:01.662Z,13
2019-05-20T00:20:02.142Z,13
2019-05-20T00:25:01.514Z,13
2019-05-20T00:30:01.723Z,13
2019-05-20T00:35:02.462Z,13
2019-05-20T00:40:01.690Z,13.1
2019-05-20T00:45:02.073Z,13.1
2019-05-20T00:50:02.916Z,13.1
2019-05-20T00:55:02.178Z,13
2019-05-20T01:00:02.582Z,13
2019-05-20T01:05:01.821Z,12.9
2019-05-20T01:10:01.913Z,12.9
2019-05-20T01:15:01.952Z,12.9
2019-05-20T01:20:01.942Z,12.9
2019-05-20T01:25:01.619Z,12.9
2019-05-20T01:30:02.222Z,12.9
2019-05-20T01:35:01.765Z,12.9
2019-05-20T01:40:01.952Z,12.9
2019-05-20T01:45:01.558Z,13
2019-05-20T01:50:02.142Z,13
2019-05-20T01:55:02.047Z,13
2019-05-20T02:00:02.098Z,12.9
2019-05-20T02:05:01.765Z,12.9
2019-05-20T02:10:01.781Z,12.9
2019-05-20T02:15:01.447Z,12.9
2019-05-20T02:20:06.410Z,12.8
2019-05-20T02:25:02.015Z,12.8
2019-05-20T02:30:01.903Z,12.8
2019-05-20T02:35:01.284Z,12.9
2019-05-20T02:40:01.938Z,13
2019-05-20T02:45:01.671Z,12.9
2019-05-20T02:50:01.263Z,13
2019-05-20T02:55:02.059Z,13
2019-05-20T03:00:01.950Z,13
2019-05-20T03:05:01.517Z,13.1
2019-05-20T03:10:02.065Z,13.1
2019-05-20T03:15:02.013Z,13
2019-05-20T03:20:02.154Z,13
2019-05-20T03:25:02.120Z,13
2019-05-20T03:30:01.977Z,13
2019-05-20T03:35:02.242Z,13
2019-05-20T03:40:01.813Z,13.1
2019-05-20T03:45:01.379Z,13.1
2019-05-20T03:50:01.506Z,13
2019-05-20T03:55:01.674Z,12.8
2019-05-20T04:00:01.604Z,12.7
2019-05-20T04:05:03.155Z,12.8
2019-05-20T04:10:02.214Z,12.8
2019-05-20T04:15:01.406Z,12.8
2019-05-20T04:20:01.555Z,12.9
2019-05-20T04:25:02.003Z,12.9
2019-05-20T04:30:01.517Z,13
2019-05-20T04:35:18.630Z,13
2019-05-20T04:40:02.277Z,13
2019-05-20T04:45:01.633Z,13.1
2019-05-20T04:50:03.285Z,13.1
2019-05-20T04:55:01.921Z,13.1
2019-05-20T05:00:02.330Z,13.1
2019-05-20T05:05:01.237Z,13
2019-05-20T05:10:01.909Z,12.9
2019-05-20T05:15:01.386Z,13
2019-05-20T05:20:02.264Z,12.9
2019-05-20T05:25:01.235Z,13
2019-05-20T05:30:02.136Z,13
2019-05-20T05:35:01.647Z,12.9
2019-05-20T05:40:01.887Z,13
2019-05-20T05:45:01.524Z,13.1
2019-05-20T05:50:01.331Z,13.2
2019-05-20T05:55:02.306Z,13.2
2019-05-20T06:00:01.727Z,13.2
2019-05-20T06:05:01.557Z,13.4
2019-05-20T06:10:01.718Z,13.4
2019-05-20T06:15:02.263Z,13.4
2019-05-20T06:20:01.458Z,13.6
2019-05-20T06:25:02.203Z,13.6
2019-05-20T06:30:02.698Z,13.6
2019-05-20T06:35:01.253Z,13.7
2019-05-20T06:40:02.023Z,13.7
2019-05-20T06:45:01.958Z,13.9
2019-05-20T06:50:02.213Z,14.2
2019-05-20T06:55:01.834Z,14.3
2019-05-20T07:00:01.925Z,14.3
2019-05-20T07:05:01.580Z,14.4
2019-05-20T07:10:02.156Z,14.5
2019-05-20T07:15:01.402Z,14.6
2019-05-20T07:20:01.889Z,14.6
2019-05-20T07:25:02.145Z,14.5
2019-05-20T07:30:02.197Z,14.6
2019-05-20T07:35:01.655Z,14.5
2019-05-20T07:40:02.442Z,14.5
2019-05-20T07:45:02.217Z,14.6
2019-05-20T07:50:01.576Z,14.6
2019-05-20T07:55:01.454Z,14.7
2019-05-20T08:00:01.561Z,14.8
2019-05-20T08:05:02.347Z,14.8
2019-05-20T08:10:01.573Z,14.9
2019-05-20T08:15:01.360Z,14.8
2019-05-20T08:20:01.906Z,14.8
2019-05-20T08:25:01.454Z,15
2019-05-20T08:30:02.085Z,15
2019-05-20T08:35:01.520Z,15.1
2019-05-20T08:40:01.961Z,15.2
2019-05-20T08:45:01.453Z,15
2019-05-20T08:50:02.162Z,15
2019-05-20T08:55:02.209Z,15
2019-05-20T09:00:02.921Z,15
2019-05-20T09:05:01.895Z,14.9
2019-05-20T09:10:01.729Z,15.1
2019-05-20T09:15:01.729Z,15.2
2019-05-20T09:20:01.903Z,15.1
2019-05-20T09:25:02.218Z,15.3
2019-05-20T09:30:02.020Z,15.5
2019-05-20T09:35:01.649Z,15.7
2019-05-20T09:40:01.353Z,15.8
2019-05-20T09:45:03.173Z,16
2019-05-20T09:50:02.451Z,16.2
2019-05-20T09:55:01.757Z,16.5
2019-05-20T10:00:02.329Z,16.8
2019-05-20T10:05:01.201Z,16.9
2019-05-20T10:10:01.221Z,17
2019-05-20T10:15:02.152Z,17
2019-05-20T10:20:02.186Z,17.1
2019-05-20T10:25:01.665Z,17.3
2019-05-20T10:30:02.216Z,17.4
2019-05-20T10:35:02.253Z,17.6
2019-05-20T10:40:01.665Z,17.8
2019-05-20T10:45:01.605Z,17.8
2019-05-20T10:50:01.823Z,17.7
2019-05-20T10:55:02.065Z,17.8
2019-05-20T11:00:01.746Z,17.9
2019-05-20T11:05:02.401Z,18.1
2019-05-20T11:10:01.697Z,18.3
2019-05-20T11:15:01.268Z,18.4
2019-05-20T11:20:01.962Z,18.4
2019-05-20T11:25:01.631Z,18.2
2019-05-20T11:30:01.308Z,18.1
2019-05-20T11:35:02.342Z,18.2
2019-05-20T11:40:01.720Z,18
2019-05-20T11:45:01.998Z,17.7
2019-05-20T11:50:01.856Z,17.8
2019-05-20T11:55:01.421Z,17.5
2019-05-20T12:00:01.882Z,17.5
2019-05-20T12:05:01.817Z,17.6
2019-05-20T12:10:01.545Z,17.9
2019-05-20T12:15:02.559Z,18.4
2019-05-20T12:20:01.566Z,18.8
2019-05-20T12:25:01.761Z,19.3
2019-05-20T12:30:01.308Z,19.5
2019-05-20T12:35:01.809Z,19
2019-05-20T12:40:06.848Z,18.9
2019-05-20T12:45:01.931Z,19.6
2019-05-20T12:50:01.835Z,20
2019-05-20T12:55:07.673Z,20.2
2019-05-20T13:00:01.997Z,20.9
2019-05-20T13:05:01.566Z,21
2019-05-20T13:10:02.933Z,21.6
2019-05-20T13:15:01.366Z,22.4
2019-05-20T13:20:01.548Z,22.7
2019-05-20T13:25:02.262Z,23.4
2019-05-20T13:30:02.170Z,24
2019-05-20T13:35:02.106Z,24.1
2019-05-20T13:40:03.318Z,24.3
2019-05-20T13:45:01.640Z,24.2
2019-05-20T13:50:02.242Z,23.8
2019-05-20T13:55:02.170Z,22.7
2019-05-20T14:00:02.595Z,21.9
2019-05-20T14:05:02.063Z,21.1
2019-05-20T14:10:02.329Z,21.1
2019-05-20T14:15:01.894Z,21.2
2019-05-20T14:20:02.466Z,21.8
2019-05-20T14:25:01.760Z,22.6
2019-05-20T14:30:01.844Z,22.8
2019-05-20T14:35:02.119Z,22.5
2019-05-20T14:40:01.771Z,22.2
2019-05-20T14:45:01.498Z,21.3
2019-05-20T14:50:01.689Z,20.4
2019-05-20T14:55:01.296Z,20.4
2019-05-20T15:00:02.349Z,20.2
2019-05-20T15:05:01.561Z,19.9
2019-05-20T15:10:01.228Z,20
2019-05-20T15:15:01.885Z,19.8
2019-05-20T15:20:01.436Z,19.6
2019-05-20T15:25:01.308Z,19.9
2019-05-20T15:30:01.726Z,19.6
2019-05-20T15:35:02.395Z,19.4
2019-05-20T15:40:01.852Z,19.6
2019-05-20T15:45:01.888Z,19.7
2019-05-20T15:50:01.206Z,19.5
2019-05-20T15:55:02.149Z,19.6
2019-05-20T16:00:01.459Z,19.8
2019-05-20T16:05:01.225Z,20.4
2019-05-20T16:10:01.718Z,20.7
2019-05-20T16:15:01.755Z,21
2019-05-20T16:20:01.976Z,21.3
2019-05-20T16:25:01.485Z,21.3
2019-05-20T16:30:06.447Z,21.1
2019-05-20T16:35:02.682Z,19.9
2019-05-20T16:40:01.459Z,19.1
2019-05-20T16:45:02.161Z,18.3
2019-05-20T16:50:01.336Z,17.2
2019-05-20T16:55:01.880Z,16.8
2019-05-20T17:00:01.449Z,16.4
2019-05-20T17:05:01.802Z,16.5
2019-05-20T17:10:01.573Z,16.6
2019-05-20T17:15:02.178Z,16.7
2019-05-20T17:20:01.763Z,16.9
2019-05-20T17:25:02.521Z,17.1
2019-05-20T17:30:01.378Z,17.1
2019-05-20T17:35:02.071Z,17.3
2019-05-20T17:40:01.864Z,17.4
2019-05-20T17:45:02.483Z,17.5
2019-05-20T17:50:01.484Z,17.6
2019-05-20T17:55:02.151Z,17.6
2019-05-20T18:00:03.016Z,17.6
2019-05-20T18:05:01.461Z,17.7
2019-05-20T18:10:02.260Z,17.7
2019-05-20T18:15:02.182Z,17.8
2019-05-20T18:20:02.922Z,17.7
2019-05-20T18:25:01.858Z,17.7
2019-05-20T18:30:02.162Z,17.6
2019-05-20T18:35:01.678Z,17.4
2019-05-20T18:40:13.080Z,17.3
2019-05-20T18:45:02.109Z,17.1
2019-05-20T18:50:01.415Z,17
2019-05-20T18:55:02.034Z,16.8
2019-05-20T19:00:01.429Z,16.9
2019-05-20T19:05:01.996Z,16.9
2019-05-20T19:10:01.807Z,16.7
2019-05-20T19:15:02.451Z,16.7
2019-05-20T19:20:01.830Z,16.7
2019-05-20T19:25:03.116Z,16.7
2019-05-20T19:30:01.670Z,16.8
2019-05-20T19:35:01.961Z,16.7
2019-05-20T19:40:01.472Z,16.7
2019-05-20T19:45:02.050Z,16.7
2019-05-20T19:50:02.314Z,16.7
2019-05-20T19:55:02.093Z,16.6
2019-05-20T20:00:01.976Z,16.5
2019-05-20T20:05:02.025Z,16.5
2019-05-20T20:10:02.212Z,16.6
2019-05-20T20:15:01.719Z,16.6
2019-05-20T20:20:02.517Z,16.7
2019-05-20T20:25:02.315Z,16.7
2019-05-20T20:30:02.027Z,16.7
2019-05-20T20:35:01.349Z,16.8
2019-05-20T20:40:02.467Z,16.8
2019-05-20T20:45:01.376Z,16.8
2019-05-20T20:50:01.608Z,16.8
2019-05-20T20:55:01.298Z,17
2019-05-20T21:00:01.406Z,16.9
2019-05-20T21:05:02.087Z,16.9
2019-05-20T21:10:01.324Z,16.9
2019-05-20T21:15:02.393Z,17
2019-05-20T21:20:01.359Z,17
2019-05-20T21:25:01.281Z,17
2019-05-20T21:30:01.550Z,17.1
2019-05-20T21:35:01.580Z,17
2019-05-20T21:40:01.305Z,17
2019-05-20T21:45:02.373Z,16.9
2019-05-20T21:50:01.563Z,16.9
2019-05-20T21:55:01.883Z,16.9
2019-05-20T22:00:01.660Z,16.9
2019-05-20T22:05:01.901Z,16.8
2019-05-20T22:10:02.260Z,16.8
2019-05-20T22:15:02.233Z,16.7
2019-05-20T22:20:01.954Z,16.6
2019-05-20T22:25:01.724Z,16.6
2019-05-20T22:30:02.065Z,16.6
2019-05-20T22:35:01.414Z,16.5
2019-05-20T22:40:01.209Z,16.5
2019-05-20T22:45:01.847Z,16.5
2019-05-20T22:50:02.079Z,16.5
2019-05-20T22:55:01.757Z,16.4
2019-05-20T23:00:01.577Z,16.5
2019-05-20T23:05:01.581Z,16.5
2019-05-20T23:10:01.252Z,16.5
2019-05-20T23:15:02.141Z,16.5
2019-05-20T23:20:02.145Z,16.5
2019-05-20T23:25:01.547Z,16.6
2019-05-20T23:30:01.979Z,16.6
2019-05-20T23:35:02.176Z,16.6
2019-05-20T23:40:01.703Z,16.6
2019-05-20T23:45:01.474Z,16.6
2019-05-20T23:50:01.230Z,16.6
2019-05-20T23:55:01.432Z,16.6
